Time;durP1;ratioP1;P1;durP2;ratioP2;P2;SDS_P1;SDS_P2;PMS_P1;PMS_P2;Temp;Humidity;BMP_temperature;BMP_pressure;BME280_temperature;BME280_humidity;BME280_pressure;Samples;Min_cycle;Max_cycle;Signal;HPM_P1;HPM_P2
2022/08/12 00:44:22;;;;;;;;;16.00;16.00;;;;;24.34;33.91;100708.66;5075313;28;45445;-70
2022/08/12 00:46:54;;;;;;;;;15.00;15.00;;;;;24.29;33.88;100705.56;5075463;27;46348;-71
2022/08/12 00:49:22;;;;;;;;;20.00;20.00;;;;;24.27;34.02;100707.56;5075139;28;45416;-69
2022/08/12 00:52:05;;;;;;;;;18.75;18.75;;;;;24.22;34.55;100709.84;5073713;27;45359;-70
2022/08/12 00:54:36;;;;;;;;;14.00;14.00;;;;;24.17;34.52;100704.06;5075869;27;45450;-69
2022/08/12 00:57:07;;;;;;;;;16.00;16.00;;;;;24.13;34.48;100700.00;5075142;27;46681;-69
2022/08/12 00:59:34;;;;;;;;;11.50;11.50;;;;;24.09;34.21;100690.53;5075501;27;45326;-69
2022/08/12 01:02:03;;;;;;;;;13.00;13.00;;;;;24.09;33.95;100696.78;5075359;28;45414;-69
2022/08/12 01:12:45;;;;;;;;;16.75;16.75;;;;;23.99;33.88;100691.41;5074932;28;45376;-68
2022/08/12 01:15:13;;;;;;;;;14.75;14.75;;;;;23.97;34.24;100687.19;5075020;27;45484;-68
2022/08/12 01:17:43;;;;;;;;;13.25;13.25;;;;;23.95;33.64;100690.00;5075068;27;46698;-69
2022/08/12 01:20:17;;;;;;;;;14.75;14.75;;;;;23.94;34.11;100696.34;5074968;27;45260;-68
2022/08/12 01:23:27;;;;;;;;;10.75;10.75;;;;;23.90;33.92;100701.19;5074773;27;45311;-70
2022/08/12 01:25:54;;;;;;;;;13.25;13.25;;;;;23.88;34.25;100696.94;5057811;28;45579;-68
2022/08/12 01:28:23;;;;;;;;;14.75;14.75;;;;;23.85;34.33;100694.56;5076212;27;46267;-69
2022/08/12 01:30:49;;;;;;;;;14.25;14.25;;;;;23.82;34.58;100702.91;5081486;27;45192;-69
2022/08/12 01:33:17;;;;;;;;;15.25;15.25;;;;;23.77;34.02;100700.63;5079865;28;45355;-69
2022/08/12 01:35:53;;;;;;;;;16.25;16.25;;;;;23.73;34.25;100696.56;5081515;27;45421;-67
2022/08/12 01:38:21;;;;;;;;;15.75;15.75;;;;;23.70;34.38;100700.38;5081229;27;45638;-68
2022/08/12 01:40:47;;;;;;;;;15.25;15.25;;;;;23.67;34.12;100694.44;5081152;27;45252;-68
2022/08/12 01:43:20;;;;;;;;;14.75;14.75;;;;;23.62;34.43;100684.16;5079998;27;45362;-68
2022/08/12 01:46:05;;;;;;;;;15.25;15.25;;;;;23.59;34.44;100693.34;5081565;27;45300;-68
2022/08/12 01:49:01;;;;;;;;;17.00;17.00;;;;;23.57;34.55;100694.47;5081288;27;45337;-69
2022/08/12 01:51:42;;;;;;;;;14.75;14.75;;;;;23.56;34.59;100692.78;5081227;27;45353;-69
2022/08/12 01:54:13;;;;;;;;;12.25;12.25;;;;;23.54;34.41;100689.41;5081202;27;45338;-68
2022/08/12 01:57:05;;;;;;;;;16.00;15.00;;;;;23.53;34.61;100695.75;5081419;27;45358;-67
2022/08/12 01:59:58;;;;;;;;;14.75;14.75;;;;;23.48;34.73;100697.03;5051345;27;48428;-71
2022/08/12 02:02:43;;;;;;;;;13.75;13.75;;;;;23.42;34.77;100688.69;5081120;27;45456;-68
2022/08/12 02:11:31;;;;;;;;;15.75;15.75;;;;;23.32;34.91;100678.81;5080899;27;45307;-67
2022/08/12 02:13:59;;;;;;;;;13.50;13.50;;;;;23.33;34.95;100677.00;5080966;27;45282;-69
2022/08/12 02:16:46;;;;;;;;;12.25;12.25;;;;;23.29;35.28;100668.38;5081614;27;45427;-71
2022/08/12 02:19:36;;;;;;;;;14.50;14.50;;;;;23.25;35.08;100671.47;5081179;27;45388;-67
2022/08/12 02:22:26;;;;;;;;;15.75;15.75;;;;;23.23;35.19;100660.00;5080938;27;46554;-68
2022/08/12 02:24:55;;;;;;;;;13.50;13.50;;;;;23.16;35.21;100667.78;5079166;28;45484;-69
2022/08/12 02:27:23;;;;;;;;;12.00;12.00;;;;;23.13;35.45;100662.72;5080828;27;45244;-68
2022/08/12 02:29:48;;;;;;;;;12.25;12.25;;;;;23.12;35.40;100663.69;5079455;28;45311;-69
2022/08/12 02:32:14;;;;;;;;;10.00;9.25;;;;;23.07;35.81;100669.47;5080634;27;46513;-70
2022/08/12 02:34:43;;;;;;;;;11.75;11.75;;;;;23.05;35.55;100669.63;5080850;27;45305;-69
2022/08/12 02:37:14;;;;;;;;;14.00;14.00;;;;;23.03;35.79;100668.94;5080886;27;45450;-69
2022/08/12 02:39:43;;;;;;;;;14.00;14.00;;;;;23.00;35.72;100663.00;5079818;28;45462;-69
2022/08/12 02:42:10;;;;;;;;;13.25;13.25;;;;;22.97;35.74;100666.81;5077039;27;46315;-69
2022/08/12 02:44:42;;;;;;;;;15.75;15.75;;;;;22.96;36.09;100669.63;5077526;27;45184;-72
2022/08/12 02:47:08;;;;;;;;;16.00;16.00;;;;;22.91;36.17;100665.53;5077481;27;45394;-70
2022/08/12 02:49:39;;;;;;;;;16.50;16.50;;;;;22.87;35.75;100660.59;5077539;27;45436;-71
2022/08/12 02:52:06;;;;;;;;;15.00;15.00;;;;;22.83;36.19;100657.34;5077475;27;45464;-69
2022/08/12 02:54:33;;;;;;;;;14.00;14.00;;;;;22.80;36.51;100657.63;5077091;27;45391;-69
2022/08/12 02:56:59;;;;;;;;;12.75;12.75;;;;;22.79;35.78;100655.91;5076949;27;45419;-70
2022/08/12 02:59:27;;;;;;;;;13.00;13.00;;;;;22.77;36.27;100653.38;5077304;27;45571;-68
2022/08/12 03:02:03;;;;;;;;;14.75;14.75;;;;;22.73;35.88;100651.13;5075460;28;46682;-67
2022/08/12 03:04:45;;;;;;;;;13.00;13.00;;;;;22.70;36.69;100656.75;5076964;27;45313;-70
2022/08/12 03:07:16;;;;;;;;;12.75;12.75;;;;;22.66;36.28;100650.81;5076907;27;45293;-69
2022/08/12 03:09:49;;;;;;;;;13.00;13.00;;;;;22.60;36.57;100656.72;5076923;27;45456;-69
2022/08/12 03:12:17;;;;;;;;;13.00;13.00;;;;;22.58;36.42;100662.25;5076603;27;45878;-69
2022/08/12 03:14:43;;;;;;;;;13.00;13.00;;;;;22.55;36.66;100661.66;5076721;28;45442;-71
2022/08/12 03:17:18;;;;;;;;;14.25;14.25;;;;;22.52;36.99;100660.13;5075728;27;45355;-70
2022/08/12 03:19:44;;;;;;;;;13.00;13.00;;;;;22.49;37.08;100667.56;5075623;27;45285;-70
2022/08/12 03:22:14;;;;;;;;;12.25;12.25;;;;;22.44;36.82;100663.44;5076573;27;46442;-69
2022/08/12 03:24:44;;;;;;;;;11.50;11.50;;;;;22.43;36.91;100661.75;5077037;27;45320;-72
2022/08/12 03:27:12;;;;;;;;;14.00;14.00;;;;;22.40;37.23;100663.88;5076871;28;45428;-70
2022/08/12 03:29:38;;;;;;;;;12.75;12.75;;;;;22.37;37.26;100656.09;5076843;27;45665;-70
2022/08/12 03:32:04;;;;;;;;;15.25;15.25;;;;;22.34;37.27;100662.56;5076305;27;45630;-69
2022/08/12 03:34:34;;;;;;;;;15.00;15.00;;;;;22.29;37.65;100662.13;5076226;27;45333;-70
2022/08/12 03:37:02;;;;;;;;;13.25;13.25;;;;;22.29;37.26;100667.50;5075131;27;45400;-70
2022/08/12 03:42:17;;;;;;;;;15.00;15.00;;;;;22.27;37.33;100658.75;5076154;27;46196;-70
2022/08/12 04:01:37;;;;;;;;;16.75;16.75;;;;;22.12;37.74;100666.28;5076042;27;45262;-69
2022/08/12 04:04:03;;;;;;;;;15.75;15.75;;;;;22.10;37.98;100663.78;5075770;28;46283;-69
2022/08/12 04:06:29;;;;;;;;;16.00;16.00;;;;;22.10;37.80;100661.09;5075928;27;45351;-68
2022/08/12 04:08:57;;;;;;;;;17.25;17.25;;;;;22.10;37.92;100661.09;5076079;27;45267;-69
2022/08/12 04:14:18;;;;;;;;;15.75;15.75;;;;;22.04;38.06;100656.28;5075863;28;45736;-69
2022/08/12 04:16:45;;;;;;;;;17.50;17.50;;;;;22.02;38.36;100661.75;5075483;27;45413;-68
2022/08/12 04:19:12;;;;;;;;;16.25;16.25;;;;;21.97;38.38;100657.78;5076279;27;45329;-68
2022/08/12 04:21:38;;;;;;;;;17.00;17.00;;;;;21.92;38.58;100646.66;5075674;27;45278;-68
2022/08/12 04:24:05;;;;;;;;;19.00;19.00;;;;;21.86;38.86;100656.03;5074401;28;45677;-69
2022/08/12 04:26:31;;;;;;;;;17.50;17.50;;;;;21.81;38.66;100664.50;5075639;27;45431;-69
2022/08/12 04:28:58;;;;;;;;;11.00;11.00;;;;;21.76;38.75;100664.03;5075596;27;45426;-68
2022/08/12 04:31:35;;;;;;;;;14.25;14.25;;;;;21.70;38.95;100660.06;5074642;28;45313;-70
2022/08/12 04:34:02;;;;;;;;;15.00;15.00;;;;;21.65;38.89;100659.59;5075428;27;45676;-69
2022/08/12 04:36:29;;;;;;;;;16.00;16.00;;;;;21.56;39.64;100649.66;5075584;27;45459;-70
2022/08/12 04:38:57;;;;;;;;;18.25;18.25;;;;;21.56;39.33;100657.69;5075809;27;45321;-69
2022/08/12 04:41:23;;;;;;;;;18.50;18.50;;;;;21.52;39.38;100666.97;5075672;27;45559;-70
2022/08/12 04:43:49;;;;;;;;;14.75;14.75;;;;;21.51;39.38;100659.91;5075448;27;47162;-73
2022/08/12 04:46:15;;;;;;;;;15.75;15.75;;;;;21.47;39.89;100653.97;5076006;27;45584;-69
2022/08/12 04:48:40;;;;;;;;;16.75;16.50;;;;;21.43;39.88;100657.88;5076081;27;45413;-70
2022/08/12 04:51:07;;;;;;;;;16.75;16.75;;;;;21.39;39.80;100659.97;5075933;27;45306;-69
2022/08/12 04:53:33;;;;;;;;;14.00;14.00;;;;;21.36;39.90;100660.25;5075359;27;45732;-71
2022/08/12 04:55:59;;;;;;;;;16.25;16.25;;;;;21.34;39.78;100664.88;5073763;27;45471;-70
2022/08/12 04:58:25;;;;;;;;;18.75;18.75;;;;;21.32;40.11;100666.84;5075330;28;45333;-71
2022/08/12 05:00:50;;;;;;;;;17.50;17.50;;;;;21.31;40.05;100665.97;5075378;27;45578;-69
2022/08/12 05:03:16;;;;;;;;;17.50;17.50;;;;;21.26;40.40;100662.84;5074264;28;45421;-68
2022/08/12 05:05:42;;;;;;;;;14.50;14.50;;;;;21.25;39.88;100662.97;5075345;27;45449;-71
2022/08/12 05:08:12;;;;;;;;;16.25;16.25;;;;;21.26;40.62;100667.34;5075267;28;45389;-68
2022/08/12 05:10:38;;;;;;;;;17.25;17.25;;;;;21.23;40.59;100667.63;5075091;27;45494;-69
2022/08/12 05:13:08;;;;;;;;;14.50;14.00;;;;;21.21;40.65;100667.72;5074710;27;46087;-68
2022/08/12 05:15:37;;;;;;;;;14.00;14.00;;;;;21.19;40.71;100667.00;5075007;27;45319;-69
2022/08/12 05:18:02;;;;;;;;;16.25;16.25;;;;;21.17;41.02;100667.13;5074862;27;45250;-71
2022/08/12 05:20:28;;;;;;;;;18.00;18.00;;;;;21.16;40.53;100672.63;5074786;27;45351;-68
2022/08/12 05:23:24;;;;;;;;;13.25;13.25;;;;;21.14;41.01;100670.06;5074742;27;45650;-69
2022/08/12 05:25:55;;;;;;;;;13.75;13.75;;;;;21.12;40.74;100671.19;5074409;27;45313;-72
2022/08/12 05:28:23;;;;;;;;;19.75;19.75;;;;;21.11;40.72;100672.97;5074544;28;45403;-70
2022/08/12 05:30:48;;;;;;;;;13.25;13.25;;;;;21.12;40.98;100671.19;5074944;27;45480;-71
2022/08/12 05:33:14;;;;;;;;;18.50;17.50;;;;;21.11;40.87;100674.81;5074768;27;46734;-69
2022/08/12 05:35:43;;;;;;;;;18.00;18.00;;;;;21.13;41.02;100683.56;5074686;27;45176;-70
2022/08/12 05:40:58;;;;;;;;;17.75;17.75;;;;;21.16;40.57;100675.28;5074871;27;45362;-70
2022/08/12 05:43:24;;;;;;;;;19.25;19.25;;;;;21.19;41.17;100676.84;5074449;27;45505;-69
2022/08/12 05:45:50;;;;;;;;;17.00;17.00;;;;;21.20;40.72;100687.44;5074346;27;45389;-70
2022/08/12 05:48:15;;;;;;;;;19.25;19.25;;;;;21.22;40.47;100676.63;5074738;27;45294;-70
2022/08/12 05:50:41;;;;;;;;;18.00;18.00;;;;;21.24;41.08;100683.53;5074738;27;45426;-69
2022/08/12 05:53:07;;;;;;;;;11.00;11.00;;;;;21.25;40.56;100684.38;5074564;28;46660;-70
2022/08/12 05:55:33;;;;;;;;;16.75;16.75;;;;;21.25;40.92;100677.19;5074558;27;45347;-74
2022/08/12 05:58:01;;;;;;;;;17.25;17.25;;;;;21.29;40.53;100677.78;5074378;27;45342;-70
2022/08/12 06:00:30;;;;;;;;;17.50;17.50;;;;;21.33;40.40;100689.06;5074478;27;45243;-71
2022/08/12 06:02:59;;;;;;;;;19.25;19.25;;;;;21.32;40.70;100680.22;5074177;27;46221;-70
2022/08/12 06:05:33;;;;;;;;;19.75;19.75;;;;;21.35;40.14;100687.97;5072601;28;45411;-71
2022/08/12 06:07:59;;;;;;;;;20.50;20.50;;;;;21.38;40.58;100679.69;5074222;27;45361;-70
2022/08/12 06:10:24;;;;;;;;;19.75;19.75;;;;;21.42;40.16;100689.16;5074688;27;45336;-71
2022/08/12 06:12:50;;;;;;;;;18.25;18.25;;;;;21.46;40.30;100673.66;5073880;27;45528;-69
2022/08/12 06:15:16;;;;;;;;;17.75;17.75;;;;;21.52;40.00;100683.03;5074972;27;45424;-71
2022/08/12 06:17:42;;;;;;;;;17.50;17.50;;;;;21.57;39.93;100686.97;5076619;28;45256;-70
2022/08/12 06:20:12;;;;;;;;;17.00;17.00;;;;;21.63;39.78;100679.41;5077766;27;45392;-71
2022/08/12 06:22:46;;;;;;;;;16.50;16.50;;;;;21.67;39.70;100676.38;5077781;27;45400;-69
2022/08/12 06:25:17;;;;;;;;;16.25;16.25;;;;;21.77;39.72;100678.25;5078290;27;45404;-73
2022/08/12 06:27:47;;;;;;;;;17.75;16.75;;;;;21.84;39.59;100687.47;5076859;28;45284;-71
2022/08/12 06:30:17;;;;;;;;;16.25;16.25;;;;;21.86;39.48;100677.47;5078796;27;45388;-69
2022/08/12 06:32:42;;;;;;;;;19.00;19.00;;;;;21.95;39.03;100679.34;5078188;27;45452;-68
2022/08/12 06:35:11;;;;;;;;;16.50;16.50;;;;;22.04;39.05;100689.25;5078063;27;45206;-71
2022/08/12 06:37:40;;;;;;;;;19.00;18.50;;;;;22.11;39.01;100694.06;5077018;27;45362;-72
2022/08/12 06:40:09;;;;;;;;;16.25;16.25;;;;;22.20;38.77;100687.06;5077479;27;45233;-70
2022/08/12 06:42:48;;;;;;;;;15.75;15.75;;;;;22.24;38.48;100681.28;5077572;27;45311;-73
2022/08/12 06:45:14;;;;;;;;;19.25;19.25;;;;;22.31;37.99;100679.78;5077388;27;45378;-69
2022/08/12 06:47:41;;;;;;;;;15.00;15.00;;;;;22.42;38.16;100696.75;5075762;27;45506;-69
2022/08/12 06:50:07;;;;;;;;;15.00;15.00;;;;;22.47;37.90;100692.69;5077660;27;45595;-72
2022/08/12 06:52:32;;;;;;;;;12.75;12.75;;;;;22.56;37.62;100690.16;5077154;27;45386;-72
2022/08/12 06:54:58;;;;;;;;;18.25;18.25;;;;;22.61;37.21;100691.47;5076950;27;45276;-73
2022/08/12 06:57:28;;;;;;;;;15.25;15.25;;;;;22.68;37.47;100694.41;5077227;27;45386;-70
2022/08/12 06:59:54;;;;;;;;;18.00;18.00;;;;;22.78;37.40;100694.44;5077444;27;45310;-70
2022/08/12 07:02:21;;;;;;;;;19.25;19.25;;;;;22.86;37.14;100689.22;5077090;27;45330;-70
2022/08/12 07:04:48;;;;;;;;;16.25;16.25;;;;;22.95;37.20;100690.25;5076902;28;45272;-70
2022/08/12 07:07:14;;;;;;;;;17.75;17.75;;;;;23.04;36.42;100688.53;5076783;27;45233;-71
2022/08/12 07:09:44;;;;;;;;;17.75;17.75;;;;;23.11;36.84;100681.63;5077107;27;45175;-70
2022/08/12 07:12:17;;;;;;;;;17.00;17.00;;;;;23.19;36.40;100687.13;5076617;27;45406;-68
2022/08/12 07:14:43;;;;;;;;;17.25;16.75;;;;;23.32;36.47;100692.25;5077045;28;45465;-70
2022/08/12 07:17:11;;;;;;;;;17.25;17.25;;;;;23.44;36.32;100684.91;5076924;27;45428;-71
2022/08/12 07:19:37;;;;;;;;;14.50;14.50;;;;;23.53;36.27;100690.41;5076930;27;45251;-68
2022/08/12 07:22:05;;;;;;;;;17.00;17.00;;;;;23.62;36.09;100676.09;5076361;28;45423;-70
2022/08/12 07:24:31;;;;;;;;;16.75;16.75;;;;;23.72;35.90;100686.81;5075468;27;45272;-68
2022/08/12 07:26:57;;;;;;;;;14.25;14.25;;;;;23.82;35.86;100684.09;5074972;28;45489;-68
2022/08/12 07:29:24;;;;;;;;;15.50;15.50;;;;;23.90;35.04;100685.06;5075810;27;45267;-70
2022/08/12 07:31:51;;;;;;;;;13.25;13.25;;;;;24.00;34.81;100682.38;5077224;27;45357;-69
2022/08/12 07:34:16;;;;;;;;;15.75;15.75;;;;;24.06;34.44;100676.41;5077110;28;45398;-74
2022/08/12 07:36:41;;;;;;;;;13.00;13.00;;;;;24.17;35.07;100682.59;5077100;27;45417;-70
2022/08/12 07:39:07;;;;;;;;;13.25;13.25;;;;;24.28;34.50;100679.69;5077141;27;45223;-68
2022/08/12 07:41:33;;;;;;;;;14.25;14.25;;;;;24.40;34.64;100682.22;5075429;27;47049;-69
2022/08/12 07:44:04;;;;;;;;;16.00;16.00;;;;;24.51;34.76;100687.38;5075405;27;45342;-69
2022/08/12 07:46:35;;;;;;;;;17.50;17.50;;;;;24.60;34.29;100677.53;5076361;27;45387;-71
2022/08/12 07:49:04;;;;;;;;;14.00;13.75;;;;;24.73;33.87;100680.75;5076545;27;45251;-70
2022/08/12 07:51:30;;;;;;;;;14.75;14.75;;;;;24.83;33.50;100678.00;5074640;28;45524;-71
2022/08/12 07:53:58;;;;;;;;;12.75;12.75;;;;;24.98;33.77;100677.47;5075833;27;45407;-74
2022/08/12 07:56:23;;;;;;;;;14.25;14.25;;;;;25.08;33.34;100681.78;5076215;27;45211;-70
2022/08/12 07:58:49;;;;;;;;;14.50;13.75;;;;;25.16;33.22;100675.59;5075923;27;45679;-71
2022/08/12 08:01:18;;;;;;;;;13.75;13.75;;;;;25.28;33.09;100673.53;5076090;27;46427;-73
2022/08/12 08:06:31;;;;;;;;;13.50;13.50;;;;;25.55;32.96;100678.97;5075954;28;45354;-71
2022/08/12 08:08:58;;;;;;;;;12.00;12.00;;;;;25.69;32.47;100678.38;5076166;27;45284;-70
2022/08/12 08:14:09;;;;;;;;;11.25;11.25;;;;;25.93;31.47;100687.63;5075730;28;45333;-73
2022/08/12 08:16:39;;;;;;;;;10.50;10.50;;;;;26.05;31.49;100683.63;5075989;27;45244;-72
2022/08/12 08:19:19;;;;;;;;;12.25;12.25;;;;;26.19;31.30;100684.06;5076198;27;45408;-73
2022/08/12 08:21:45;;;;;;;;;15.75;14.50;;;;;26.34;31.33;100689.69;5075479;27;46071;-73
2022/08/12 08:24:14;;;;;;;;;12.00;12.00;;;;;26.44;30.59;100693.09;5075613;27;45453;-72
2022/08/12 08:26:47;;;;;;;;;12.25;12.25;;;;;26.52;30.53;100681.50;5075927;27;45439;-69
2022/08/12 08:29:14;;;;;;;;;9.25;9.25;;;;;26.66;30.40;100691.66;5076003;27;45321;-70
2022/08/12 08:31:44;;;;;;;;;12.00;12.00;;;;;26.78;30.35;100694.03;5075740;27;45358;-70
2022/08/12 08:34:11;;;;;;;;;9.00;9.00;;;;;26.91;30.26;100693.56;5075532;27;45268;-73
2022/08/12 08:36:40;;;;;;;;;11.75;11.00;;;;;27.04;30.43;100687.69;5075435;27;45500;-75
2022/08/12 08:39:07;;;;;;;;;10.00;10.00;;;;;27.15;29.53;100690.06;5074694;27;45393;-74
2022/08/12 08:44:16;;;;;;;;;13.00;13.00;;;;;27.40;29.67;100698.13;5075307;27;45227;-72
2022/08/12 08:46:43;;;;;;;;;11.00;11.00;;;;;27.52;29.50;100687.88;5075318;27;45378;-70
2022/08/12 08:49:10;;;;;;;;;10.25;10.25;;;;;27.61;29.36;100689.56;5075446;27;45235;-68
2022/08/12 08:51:37;;;;;;;;;12.75;12.75;;;;;27.72;29.71;100692.91;5073590;27;47397;-70
2022/08/12 08:54:05;;;;;;;;;11.75;11.75;;;;;27.83;28.91;100692.53;5075177;27;45365;-69
2022/08/12 08:56:31;;;;;;;;;12.50;12.50;;;;;27.90;29.09;100690.81;5075540;27;45385;-70
2022/08/12 08:58:57;;;;;;;;;11.75;11.75;;;;;28.01;29.11;100689.63;5075631;27;45342;-69
2022/08/12 09:01:24;;;;;;;;;11.50;11.50;;;;;28.09;27.99;100694.16;5075431;27;46114;-70
2022/08/12 09:03:49;;;;;;;;;11.25;11.25;;;;;28.13;27.99;100688.25;5075238;27;45280;-70
2022/08/12 09:06:15;;;;;;;;;11.75;11.75;;;;;28.21;28.63;100686.53;5073988;28;45424;-70
2022/08/12 09:08:43;;;;;;;;;11.25;11.25;;;;;28.30;27.95;100688.19;5074053;28;45610;-70
2022/08/12 09:13:53;;;;;;;;;10.75;10.75;;;;;28.55;27.67;100686.22;5075508;28;45434;-67
2022/08/12 09:16:19;;;;;;;;;15.50;14.00;;;;;28.71;28.18;100693.41;5075289;27;45317;-70
2022/08/12 09:18:45;;;;;;;;;11.00;11.00;;;;;28.82;27.78;100694.03;5075823;27;45519;-70
2022/08/12 09:21:11;;;;;;;;;27.75;27.50;;;;;28.93;28.00;100682.78;5074974;27;46354;-70
2022/08/12 09:23:36;;;;;;;;;10.75;10.75;;;;;29.04;27.45;100689.63;5074854;27;45419;-70
2022/08/12 09:26:02;;;;;;;;;9.75;9.75;;;;;29.12;27.18;100681.44;5075496;27;45161;-70
2022/08/12 09:28:28;;;;;;;;;10.25;10.25;;;;;29.16;26.48;100681.94;5075681;28;45328;-68
2022/08/12 09:30:57;;;;;;;;;9.75;9.75;;;;;29.22;27.07;100686.63;5073764;28;48144;-68
2022/08/12 09:33:32;;;;;;;;;11.50;11.50;;;;;29.25;26.96;100683.53;5074976;27;45421;-69
2022/08/12 09:36:04;;;;;;;;;10.75;10.75;;;;;29.30;27.13;100686.53;5075060;27;45382;-69
2022/08/12 09:38:30;;;;;;;;;10.75;10.75;;;;;29.40;26.71;100680.06;5074062;28;45241;-70
2022/08/12 09:40:56;;;;;;;;;8.75;8.75;;;;;29.48;27.02;100682.69;5074871;27;45321;-70
2022/08/12 09:46:07;;;;;;;;;10.75;10.75;;;;;29.56;26.00;100665.50;5074610;28;45368;-69
2022/08/12 09:48:33;;;;;;;;;9.00;9.00;;;;;29.59;26.38;100668.69;5074715;27;45564;-68
2022/08/12 09:50:58;;;;;;;;;10.00;10.00;;;;;29.68;25.80;100661.31;5078022;27;45510;-69
2022/08/12 09:53:25;;;;;;;;;11.00;11.00;;;;;29.76;26.31;100671.25;5078189;27;45304;-69
2022/08/12 09:55:57;;;;;;;;;9.75;9.75;;;;;29.82;26.58;100669.63;5078310;27;45338;-69
2022/08/12 09:58:29;;;;;;;;;10.50;10.50;;;;;29.95;25.97;100669.00;5078191;27;45531;-70
2022/08/12 10:01:13;;;;;;;;;8.75;8.75;;;;;30.08;26.01;100674.63;5078127;27;45247;-69
2022/08/12 10:03:42;;;;;;;;;13.75;13.75;;;;;30.14;26.15;100665.72;5077955;27;45412;-69
2022/08/12 10:06:08;;;;;;;;;9.00;9.00;;;;;30.25;26.02;100656.28;5078271;27;45403;-70
2022/08/12 10:08:35;;;;;;;;;10.00;10.00;;;;;30.29;25.36;100656.72;5078021;27;45694;-71
2022/08/12 10:13:48;;;;;;;;;11.00;11.00;;;;;30.31;24.88;100649.22;5077643;27;45371;-70
2022/08/12 10:16:30;;;;;;;;;9.75;9.75;;;;;30.40;25.11;100650.78;5078148;27;45270;-69
2022/08/12 10:19:04;;;;;;;;;13.50;13.50;;;;;30.44;24.94;100643.13;5078089;27;45561;-70
2022/08/12 10:21:39;;;;;;;;;10.25;10.25;;;;;30.49;25.06;100634.38;5078293;27;45502;-71
2022/08/12 10:24:14;;;;;;;;;12.75;12.75;;;;;30.58;24.95;100642.22;5076520;27;45327;-68
2022/08/12 10:29:40;;;;;;;;;13.75;13.75;;;;;30.71;24.35;100624.44;5078251;27;45231;-69
2022/08/12 10:32:10;;;;;;;;;12.50;12.50;;;;;30.77;24.17;100629.06;5077732;27;46189;-71
2022/08/12 10:34:35;;;;;;;;;9.25;9.25;;;;;30.86;24.07;100630.63;5077485;27;45273;-71
2022/08/12 10:37:03;;;;;;;;;9.00;9.00;;;;;30.95;24.01;100622.34;5076229;27;45329;-72
2022/08/12 10:39:36;;;;;;;;;10.50;10.50;;;;;31.03;23.71;100633.06;5078026;27;45166;-72
2022/08/12 10:44:59;;;;;;;;;9.75;9.75;;;;;31.21;23.56;100623.63;5077105;27;45432;-71
2022/08/12 10:47:27;;;;;;;;;39.00;34.25;;;;;31.30;23.28;100634.16;5077079;27;45169;-70
2022/08/12 10:49:52;;;;;;;;;9.50;9.50;;;;;31.34;23.02;100612.88;5077717;27;45465;-69
2022/08/12 10:52:18;;;;;;;;;13.25;13.25;;;;;31.44;23.36;100617.94;5077540;27;45532;-69
2022/08/12 10:54:49;;;;;;;;;8.50;8.50;;;;;31.48;22.97;100611.91;5077216;27;45377;-68
2022/08/12 10:57:15;;;;;;;;;9.00;9.00;;;;;31.58;23.24;100610.72;5077595;27;45262;-68
2022/08/12 10:59:41;;;;;;;;;8.75;8.75;;;;;31.68;23.38;100607.59;5077361;27;45688;-67
2022/08/12 11:02:13;;;;;;;;;10.25;10.25;;;;;31.78;22.74;100605.38;5075887;28;46343;-69
2022/08/12 11:04:39;;;;;;;;;7.50;7.50;;;;;31.81;22.86;100609.59;5077563;27;45282;-68
2022/08/12 11:07:06;;;;;;;;;8.75;8.75;;;;;31.81;22.05;100599.56;5076714;27;45216;-68
2022/08/12 11:09:33;;;;;;;;;8.75;8.75;;;;;31.86;22.28;100604.41;5077533;27;45362;-68
2022/08/12 11:12:04;;;;;;;;;7.75;7.75;;;;;31.88;21.92;100592.28;5076011;27;46964;-68
2022/08/12 11:14:32;;;;;;;;;11.00;11.00;;;;;31.89;22.44;100593.09;5075990;28;45307;-69
2022/08/12 11:17:05;;;;;;;;;8.75;8.75;;;;;31.96;22.14;100593.16;5076798;27;45370;-69
2022/08/12 11:19:32;;;;;;;;;11.25;11.25;;;;;32.00;22.36;100588.97;5077347;27;45365;-69
2022/08/12 11:21:58;;;;;;;;;9.00;9.00;;;;;32.11;22.08;100585.66;5076894;27;46283;-68
2022/08/12 11:24:25;;;;;;;;;10.75;10.75;;;;;32.20;22.18;100572.69;5077041;27;45309;-67
2022/08/12 11:26:51;;;;;;;;;7.75;7.75;;;;;32.27;22.04;100576.28;5077032;27;45413;-70
2022/08/12 11:29:18;;;;;;;;;8.25;8.25;;;;;32.39;22.24;100570.28;5076739;27;45643;-69
2022/08/12 11:31:44;;;;;;;;;10.50;10.50;;;;;32.47;21.35;100565.47;5076812;27;46934;-69
2022/08/12 11:34:09;;;;;;;;;6.00;6.00;;;;;32.47;21.89;100564.63;5076806;27;45332;-67
2022/08/12 11:36:35;;;;;;;;;6.50;6.50;;;;;32.52;20.95;100567.56;5076917;27;45325;-68
2022/08/12 11:39:00;;;;;;;;;7.00;7.00;;;;;32.61;21.96;100562.75;5077385;27;45216;-69
2022/08/12 11:41:26;;;;;;;;;8.75;8.75;;;;;32.66;21.51;100565.69;5076516;27;45402;-68
2022/08/12 11:43:51;;;;;;;;;7.50;7.50;;;;;32.67;21.78;100555.66;5076465;27;45448;-68
2022/08/12 11:46:20;;;;;;;;;7.75;7.75;;;;;32.69;20.81;100543.47;5076517;27;45309;-68
2022/08/12 11:48:45;;;;;;;;;10.00;10.00;;;;;32.70;21.38;100556.03;5076449;27;45399;-68
2022/08/12 11:51:11;;;;;;;;;8.75;8.75;;;;;32.71;21.24;100555.00;5075033;28;47045;-69
2022/08/12 11:53:36;;;;;;;;;8.00;8.00;;;;;32.71;21.05;100552.28;5076440;27;45330;-67
2022/08/12 11:56:04;;;;;;;;;8.75;8.75;;;;;32.77;20.13;100556.88;5076848;27;45364;-67
2022/08/12 11:58:29;;;;;;;;;7.50;7.50;;;;;32.73;20.89;100561.06;5076557;28;45338;-67
2022/08/12 12:00:55;;;;;;;;;9.25;9.25;;;;;32.67;21.57;100542.03;5076025;27;45398;-67
2022/08/12 12:03:20;;;;;;;;;17.75;17.75;;;;;32.64;21.13;100535.09;5076286;27;45423;-67
2022/08/12 12:05:46;;;;;;;;;8.75;8.75;;;;;32.60;20.47;100534.69;5076413;27;45764;-68
2022/08/12 12:08:24;;;;;;;;;7.00;7.00;;;;;32.51;20.63;100535.94;5076785;27;45342;-68
2022/08/12 12:10:50;;;;;;;;;10.25;10.25;;;;;32.56;21.25;100538.03;5075406;28;46604;-68
2022/08/12 12:13:17;;;;;;;;;9.25;9.25;;;;;32.61;20.30;100532.78;5075632;27;45514;-69
2022/08/12 12:15:43;;;;;;;;;6.50;6.50;;;;;32.63;20.79;100531.56;5075743;27;45286;-70
2022/08/12 12:18:21;;;;;;;;;7.75;7.75;;;;;32.73;20.51;100536.56;5075776;27;45512;-70
2022/08/12 12:20:47;;;;;;;;;8.00;8.00;;;;;32.78;20.62;100527.78;5075752;27;46659;-68
2022/08/12 12:23:12;;;;;;;;;9.50;9.50;;;;;32.88;20.73;100519.22;5075570;27;45364;-67
2022/08/12 12:25:38;;;;;;;;;9.50;9.50;;;;;32.96;20.41;100521.72;5075764;28;45343;-67
2022/08/12 12:28:03;;;;;;;;;8.25;8.25;;;;;33.01;20.27;100527.38;5076107;27;45294;-68
2022/08/12 12:30:29;;;;;;;;;8.00;8.00;;;;;33.03;20.06;100522.53;5075393;28;45639;-68
2022/08/12 12:32:55;;;;;;;;;10.75;10.75;;;;;33.08;20.17;100524.63;5075510;27;45347;-68
2022/08/12 12:35:20;;;;;;;;;7.50;7.50;;;;;33.13;20.15;100521.28;5075971;28;45409;-67
2022/08/12 12:37:54;;;;;;;;;8.00;8.00;;;;;33.24;20.22;100517.03;5075830;27;45277;-68
2022/08/12 12:40:20;;;;;;;;;6.00;6.00;;;;;33.32;20.57;100512.19;5075475;28;46864;-67
2022/08/12 12:42:46;;;;;;;;;6.00;6.00;;;;;33.40;18.92;100521.19;5075109;27;45263;-67
2022/08/12 12:45:12;;;;;;;;;8.00;8.00;;;;;33.40;19.29;100513.88;5075640;27;45320;-68
2022/08/12 12:47:51;;;;;;;;;8.25;8.25;;;;;33.41;18.87;100521.03;5076401;27;45568;-71
2022/08/12 12:50:16;;;;;;;;;9.00;9.00;;;;;33.41;19.24;100507.38;5073999;28;46250;-69
2022/08/12 12:52:43;;;;;;;;;6.75;6.75;;;;;33.43;19.74;100504.44;5075225;27;45330;-69
2022/08/12 12:55:09;;;;;;;;;9.00;9.00;;;;;33.44;19.73;100504.22;5075205;27;45362;-68
2022/08/12 12:57:39;;;;;;;;;8.75;8.75;;;;;33.44;20.07;100508.84;5075618;27;45381;-67
2022/08/12 13:00:15;;;;;;;;;10.75;10.75;;;;;33.49;19.38;100503.56;5075379;27;45853;-67
2022/08/12 13:02:44;;;;;;;;;9.25;9.25;;;;;33.54;19.47;100501.03;5075064;27;45223;-69
2022/08/12 13:05:10;;;;;;;;;7.25;7.25;;;;;33.54;19.47;100494.75;5075412;27;45404;-68